Time,TemperatureF,DewpointF,PressureIn,WindDirection,WindDirectionDegrees,WindSpeedMPH,WindSpeedGustMPH,Humidity,HourlyPrecipIn,Conditions,Clouds,dailyrainin,SoftwareType,DateUTC
2013-01-12 00:10:00,48.7,48.4,30.02,WSW,247,1.7,-999.0,99,-99.99,,,0.00,Acu-Link.com,2013-01-12 05:10:00,
2013-01-12 00:25:00,48.9,48.6,30.03,SSW,202,2.2,-999.0,99,-99.99,,,0.00,Acu-Link.com,2013-01-12 05:25:00,
2013-01-12 00:41:00,48.9,48.6,30.02,West,270,0.0,-999.0,99,-99.99,,,0.00,Acu-Link.com,2013-01-12 05:41:00,
2013-01-12 00:56:00,48.9,48.6,30.02,West,270,2.7,-999.0,99,-99.99,,,0.00,Acu-Link.com,2013-01-12 05:56:00,
2013-01-12 01:11:00,48.9,48.6,30.01,SW,225,0.0,-999.0,99,-99.99,,,0.00,Acu-Link.com,2013-01-12 06:11:00,
2013-01-12 01:27:00,48.9,48.6,30.01,WSW,247,1.7,-999.0,99,-99.99,,,0.00,Acu-Link.com,2013-01-12 06:27:00,
2013-01-12 01:42:00,48.9,48.6,30.01,West,270,2.2,-999.0,99,-99.99,,,0.00,Acu-Link.com,2013-01-12 06:42:00,
2013-01-12 01:57:00,48.9,48.6,30.01,WSW,247,1.7,-999.0,99,-99.99,,,0.00,Acu-Link.com,2013-01-12 06:57:00,
2013-01-12 02:13:00,48.7,48.4,30.01,North,0,0.0,-999.0,99,-99.99,,,0.00,Acu-Link.com,2013-01-12 07:13:00,
2013-01-12 02:28:00,48.7,48.4,30.01,West,270,0.0,-999.0,99,-99.99,,,0.00,Acu-Link.com,2013-01-12 07:28:00,
2013-01-12 02:43:00,48.7,48.4,30.01,South,180,0.0,-999.0,99,-99.99,,,0.00,Acu-Link.com,2013-01-12 07:43:00,
2013-01-12 02:58:00,48.7,48.4,30.01,NW,315,0.0,-999.0,99,-99.99,,,0.00,Acu-Link.com,2013-01-12 07:58:00,
2013-01-12 03:14:00,48.7,48.4,30.01,East,90,0.0,-999.0,99,-99.99,,,0.00,Acu-Link.com,2013-01-12 08:14:00,
2013-01-12 03:29:00,48.9,48.6,30.01,West,270,0.0,-999.0,99,-99.99,,,0.00,Acu-Link.com,2013-01-12 08:29:00,
2013-01-12 03:44:00,48.9,48.6,30.00,East,90,0.0,-999.0,99,-99.99,,,0.00,Acu-Link.com,2013-01-12 08:44:00,
2013-01-12 04:00:00,48.9,48.6,30.00,East,90,0.0,-999.0,99,-99.99,,,0.00,Acu-Link.com,2013-01-12 09:00:00,
2013-01-12 04:15:00,49.1,48.8,30.00,ESE,112,0.0,-999.0,99,-99.99,,,0.00,Acu-Link.com,2013-01-12 09:15:00,
2013-01-12 04:30:00,49.1,48.8,30.00,East,90,0.0,-999.0,99,-99.99,,,0.00,Acu-Link.com,2013-01-12 09:30:00,
2013-01-12 04:45:00,49.1,48.8,29.99,ESE,112,0.0,-999.0,99,-99.99,,,0.00,Acu-Link.com,2013-01-12 09:45:00,
2013-01-12 05:01:00,49.1,48.8,29.99,ESE,112,0.0,-999.0,99,-99.99,,,0.00,Acu-Link.com,2013-01-12 10:01:00,
2013-01-12 05:16:00,49.3,49.0,29.98,East,90,0.0,-999.0,99,-99.99,,,0.00,Acu-Link.com,2013-01-12 10:16:00,
2013-01-12 05:31:00,49.3,49.0,29.99,East,90,0.0,-999.0,99,-99.99,,,0.00,Acu-Link.com,2013-01-12 10:31:00,
2013-01-12 05:46:00,49.5,49.2,29.99,East,90,0.0,-999.0,99,-99.99,,,0.00,Acu-Link.com,2013-01-12 10:46:00,
2013-01-12 06:02:00,49.6,49.3,29.99,East,90,0.0,-999.0,99,-99.99,,,0.00,Acu-Link.com,2013-01-12 11:02:00,
2013-01-12 06:17:00,49.6,49.3,30.00,East,90,0.0,-999.0,99,-99.99,,,0.00,Acu-Link.com,2013-01-12 11:17:00,
2013-01-12 06:32:00,49.8,49.5,30.00,ESE,112,2.2,-999.0,99,-99.99,,,0.00,Acu-Link.com,2013-01-12 11:32:00,
2013-01-12 06:48:00,50.2,49.9,30.00,ESE,112,1.7,-999.0,99,-99.99,,,0.00,Acu-Link.com,2013-01-12 11:48:00,
2013-01-12 07:03:00,50.2,49.9,30.01,East,90,2.7,-999.0,99,-99.99,,,0.00,Acu-Link.com,2013-01-12 12:03:00,
2013-01-12 07:18:00,50.2,49.9,30.01,SSE,157,0.0,-999.0,99,-99.99,,,0.00,Acu-Link.com,2013-01-12 12:18:00,
2013-01-12 07:34:00,50.4,50.1,30.01,NNE,22,0.0,-999.0,99,-99.99,,,0.00,Acu-Link.com,2013-01-12 12:34:00,
2013-01-12 07:52:00,50.5,50.2,30.01,ESE,112,2.2,-999.0,99,-99.99,,,0.00,Acu-Link.com,2013-01-12 12:52:00,
2013-01-12 08:07:00,51.1,50.8,30.02,ESE,112,2.2,-999.0,99,-99.99,,,0.00,Acu-Link.com,2013-01-12 13:07:00,
2013-01-12 08:23:00,51.4,51.1,30.01,ESE,112,1.1,-999.0,99,-99.99,,,0.00,Acu-Link.com,2013-01-12 13:23:00,
2013-01-12 08:38:00,51.6,51.3,30.02,SE,135,1.7,-999.0,99,-99.99,,,0.00,Acu-Link.com,2013-01-12 13:38:00,
2013-01-12 08:53:00,52.3,52.0,30.03,East,90,1.1,-999.0,99,-99.99,,,0.00,Acu-Link.com,2013-01-12 13:53:00,
2013-01-12 09:09:00,53.1,52.8,30.03,South,180,1.7,-999.0,99,-99.99,,,0.00,Acu-Link.com,2013-01-12 14:09:00,
2013-01-12 09:24:00,53.1,52.8,30.03,ESE,112,2.2,-999.0,99,-99.99,,,0.00,Acu-Link.com,2013-01-12 14:24:00,
2013-01-12 09:39:00,53.4,53.1,30.03,WNW,292,1.1,-999.0,99,-99.99,,,0.00,Acu-Link.com,2013-01-12 14:39:00,
2013-01-12 09:55:00,54.0,53.7,30.03,ESE,112,2.7,-999.0,99,-99.99,,,0.00,Acu-Link.com,2013-01-12 14:55:00,
2013-01-12 10:10:00,54.3,54.0,30.04,ESE,112,1.7,-999.0,99,-99.99,,,0.00,Acu-Link.com,2013-01-12 15:10:00,
2013-01-12 10:25:00,55.0,54.7,30.03,ESE,112,0.0,-999.0,99,-99.99,,,0.00,Acu-Link.com,2013-01-12 15:25:00,
2013-01-12 10:40:00,55.9,55.6,30.03,East,90,0.0,-999.0,99,-99.99,,,0.00,Acu-Link.com,2013-01-12 15:40:00,
2013-01-12 10:56:00,56.5,56.2,30.02,East,90,2.2,-999.0,99,-99.99,,,0.00,Acu-Link.com,2013-01-12 15:56:00,
2013-01-12 11:12:00,57.4,57.1,30.02,West,270,1.1,-999.0,99,-99.99,,,0.00,Acu-Link.com,2013-01-12 16:12:00,
2013-01-12 11:27:00,59.0,58.7,30.01,East,90,2.2,-999.0,99,-99.99,,,0.00,Acu-Link.com,2013-01-12 16:27:00,
2013-01-12 11:45:00,59.9,59.6,30.00,East,90,2.7,-999.0,99,-99.99,,,0.00,Acu-Link.com,2013-01-12 16:45:00,
2013-01-12 12:00:00,60.8,60.2,29.99,ENE,67,1.1,-999.0,98,-99.99,,,0.00,Acu-Link.com,2013-01-12 17:00:00,
2013-01-12 12:17:00,62.1,60.6,29.99,WSW,247,0.0,-999.0,95,-99.99,,,0.00,Acu-Link.com,2013-01-12 17:17:00,
2013-01-12 12:33:00,62.1,60.9,29.98,ENE,67,1.7,-999.0,96,-99.99,,,0.00,Acu-Link.com,2013-01-12 17:33:00,
2013-01-12 12:58:00,62.4,60.9,29.98,WSW,247,2.7,-999.0,95,-99.99,,,0.00,Acu-Link.com,2013-01-12 17:58:00,
2013-01-12 13:13:00,63.3,61.5,29.97,SW,225,0.0,-999.0,94,-99.99,,,0.00,Acu-Link.com,2013-01-12 18:13:00,
2013-01-12 13:43:00,65.5,62.8,29.97,SW,225,0.0,-999.0,91,-99.99,,,0.00,Acu-Link.com,2013-01-12 18:43:00,
2013-01-12 14:10:00,67.8,63.1,29.98,SW,225,1.1,-999.0,85,-99.99,,,0.00,Acu-Link.com,2013-01-12 19:10:00,
2013-01-12 20:47:00,57.7,57.4,29.97,WSW,247,0.0,-999.0,99,-99.99,,,0.00,Acu-Link.com,2013-01-13 01:47:00,
2013-01-12 21:02:00,56.7,56.4,29.97,SW,225,0.0,-999.0,99,-99.99,,,0.00,Acu-Link.com,2013-01-13 02:02:00,
2013-01-12 21:17:00,56.3,56.0,29.97,WNW,292,0.0,-999.0,99,-99.99,,,0.00,Acu-Link.com,2013-01-13 02:17:00,
2013-01-12 21:33:00,55.8,55.5,29.97,WSW,247,0.0,-999.0,99,-99.99,,,0.00,Acu-Link.com,2013-01-13 02:33:00,
2013-01-12 21:48:00,55.4,55.1,29.97,WSW,247,0.0,-999.0,99,-99.99,,,0.00,Acu-Link.com,2013-01-13 02:48:00,
2013-01-12 22:03:00,55.2,54.9,29.97,SSW,202,0.0,-999.0,99,-99.99,,,0.00,Acu-Link.com,2013-01-13 03:03:00,
2013-01-12 22:19:00,54.9,54.6,29.97,SW,225,0.0,-999.0,99,-99.99,,,0.00,Acu-Link.com,2013-01-13 03:19:00,
2013-01-12 22:34:00,54.5,54.2,29.97,West,270,0.0,-999.0,99,-99.99,,,0.00,Acu-Link.com,2013-01-13 03:34:00,
2013-01-12 22:49:00,54.5,54.2,29.98,SW,225,0.0,-999.0,99,-99.99,,,0.00,Acu-Link.com,2013-01-13 03:49:00,
2013-01-12 23:04:00,54.5,54.2,29.97,West,270,0.0,-999.0,99,-99.99,,,0.00,Acu-Link.com,2013-01-13 04:04:00,
2013-01-12 23:20:00,54.9,54.6,29.97,SE,135,0.0,-999.0,99,-99.99,,,0.00,Acu-Link.com,2013-01-13 04:20:00,
2013-01-12 23:35:00,54.3,54.0,29.97,ESE,112,0.0,-999.0,99,-99.99,,,0.00,Acu-Link.com,2013-01-13 04:35:00,
2013-01-12 23:50:00,53.8,53.5,29.97,SW,225,0.0,-999.0,99,-99.99,,,0.00,Acu-Link.com,2013-01-13 04:50:00,